Aviation Digital Data Service (ADDS)

Output produced by METARs form (1337 UTC 26 May 2018)
found at http://www.aviationweather.gov/adds/metars/
 
RPLC 261300Z 08006KT 9999 FEW020 SCT300 29/23 Q1011 NOSIG RMK A2985
TAF RPLC 261100Z 2612/2718 22006KT 9999 SCT020 BKN300 TX35/2706Z TN26/2621Z 
     TEMPO 2612/2618 26005KT SCT020 BKN100
       
RPVD 261200Z 00000KT 9999 FEW015 29/26 Q1009 RMK A2980
TAF RPVD 261100Z 2612/2712 04006KT 9999 FEW015 SCT220 
     TEMPO 2612/2618 29008KT 9000 -SHRA FEW014CB SCT015 BKN080
       
RPMD 261300Z 19003KT 140V230 9999 SCT016 SCT090 BKN290 29/25 Q1010 RMK A2983
TAF RPMD 261100Z 2612/2712 36005KT 9999 FEW016 SCT090 
     TEMPO 2612/2618 33005KT FEW015CB SCT016 BKN090
       
RPLI 261200Z 02006KT 9999 SCT019 BKN280 30/23 Q1008 RETS RMK A2977
TAF RPLI 261100Z 2612/2712 32008KT 9999 FEW019 
     TEMPO 2612/2618 02004KT 9000 -TSRA FEW018CB FEW019 BKN100
       
RPVM 261300Z 36006KT 9999 FEW020 30/25 Q1010 NOSIG RMK A2983
TAF RPVM 261100Z 2612/2718 06006KT 9999 FEW020 SCT300 
     TEMPO 2612/2618 03003KT FEW020 BKN300 
     TEMPO 2618/2624 07006KT 9000 -SHRA FEW018CB SCT020 BKN100
       
RPLB 261300Z VRB03KT 9999 FEW020 28/24 Q1008 RMK A2977
TAF RPLB 261100Z 2612/2712 03004KT 9999 FEW020 SCT080 TX35/2706Z TN26/2622Z 
     TEMPO 2612/2618 06007KT 9000 -TSRA FEW018CB SCT020 BKN080
       
RPLC 261300Z 08006KT 9999 FEW020 SCT300 29/23 Q1011 NOSIG RMK A2985
TAF RPLC 261100Z 2612/2718 22006KT 9999 SCT020 BKN300 TX35/2706Z TN26/2621Z 
     TEMPO 2612/2618 26005KT SCT020 BKN100
       
RPLI 261200Z 02006KT 9999 SCT019 BKN280 30/23 Q1008 RETS RMK A2977
TAF RPLI 261100Z 2612/2712 32008KT 9999 FEW019 
     TEMPO 2612/2618 02004KT 9000 -TSRA FEW018CB FEW019 BKN100
       
RPLL 261300Z 11005KT 080V150 9999 FEW025 SCT270 31/25 Q1010 NOSIG RMK A2983
TAF RPLL 261100Z 2612/2718 11006KT 9999 FEW025 SCT100 TX36/2706Z TN28/2622Z 
     TEMPO 2612/2618 13008KT FEW022CB FEW023 BKN300 
     TEMPO 2618/2624 04005KT SCT023 BKN100
       
RPMD 261300Z 19003KT 140V230 9999 SCT016 SCT090 BKN290 29/25 Q1010 RMK A2983
TAF RPMD 261100Z 2612/2712 36005KT 9999 FEW016 SCT090 
     TEMPO 2612/2618 33005KT FEW015CB SCT016 BKN090
       
RPMR 260900Z 10002KT 9999 FEW018 33/23 Q1008 NOSIG RMK A2977
TAF RPMR 261100Z 2612/2712 06004KT 9999 FEW020 SCT080 
     TEMPO 2612/2618 02006KT FEW018CB BKN080
       
RPMZ 261200Z 27002KT 9999 FEW017 SCT300 29/24 Q1008 RMK A2977
TAF RPMZ 261100Z 2612/2712 27004KT 9999 FEW017 BKN300 
     TEMPO 2612/2618 29003KT 9000 -SHRA FEW016CB SCT017 BKN090
       
RPVD 261200Z 00000KT 9999 FEW015 29/26 Q1009 RMK A2980
TAF RPVD 261100Z 2612/2712 04006KT 9999 FEW015 SCT220 
     TEMPO 2612/2618 29008KT 9000 -SHRA FEW014CB SCT015 BKN080
       
RPVM 261300Z 36006KT 9999 FEW020 30/25 Q1010 NOSIG RMK A2983
TAF RPVM 261100Z 2612/2718 06006KT 9999 FEW020 SCT300 
     TEMPO 2612/2618 03003KT FEW020 BKN300 
     TEMPO 2618/2624 07006KT 9000 -SHRA FEW018CB SCT020 BKN100
       
RPVP 261200Z 18002KT 9999 FEW019 SCT250 30/24 Q1009 RMK A2980
TAF RPVP 261100Z 2612/2712 09006KT 9999 FEW019 SCT250 
     TEMPO 2612/2618 27005KT FEW017CB BKN080
       
RPLL 261300Z 11005KT 080V150 9999 FEW025 SCT270 31/25 Q1010 NOSIG RMK A2983
TAF RPLL 261100Z 2612/2718 11006KT 9999 FEW025 SCT100 TX36/2706Z TN28/2622Z 
     TEMPO 2612/2618 13008KT FEW022CB FEW023 BKN300 
     TEMPO 2618/2624 04005KT SCT023 BKN100
       
RPVP 261200Z 18002KT 9999 FEW019 SCT250 30/24 Q1009 RMK A2980
TAF RPVP 261100Z 2612/2712 09006KT 9999 FEW019 SCT250 
     TEMPO 2612/2618 27005KT FEW017CB BKN080
       
RPLB 261300Z VRB03KT 9999 FEW020 28/24 Q1008 RMK A2977
TAF RPLB 261100Z 2612/2712 03004KT 9999 FEW020 SCT080 TX35/2706Z TN26/2622Z 
     TEMPO 2612/2618 06007KT 9000 -TSRA FEW018CB SCT020 BKN080
       
RPMR 260900Z 10002KT 9999 FEW018 33/23 Q1008 NOSIG RMK A2977
TAF RPMR 261100Z 2612/2712 06004KT 9999 FEW020 SCT080 
     TEMPO 2612/2618 02006KT FEW018CB BKN080
       
RPMZ 261200Z 27002KT 9999 FEW017 SCT300 29/24 Q1008 RMK A2977
TAF RPMZ 261100Z 2612/2712 27004KT 9999 FEW017 BKN300 
     TEMPO 2612/2618 29003KT 9000 -SHRA FEW016CB SCT017 BKN090